Time;durP1;ratioP1;P1;durP2;ratioP2;P2;SDS_P1;SDS_P2;PMS_P1;PMS_P2;Temp;Humidity;BMP_temperature;BMP_pressure;BME280_temperature;BME280_humidity;BME280_pressure;Samples;Min_cycle;Max_cycle;Signal;HPM_P1;HPM_P2
2022/07/17 00:01:14;;;;;;;5.80;3.00;;;;;;;17.85;53.72;98908.09;5034672;28;20290;-69
2022/07/17 00:03:40;;;;;;;3.23;2.83;;;;;;;17.92;53.74;98901.47;5033591;28;20204;-69
2022/07/17 00:06:07;;;;;;;3.17;2.80;;;;;;;17.78;54.51;98907.44;5034630;28;20217;-69
2022/07/17 00:08:34;;;;;;;3.43;3.10;;;;;;;17.81;54.56;98907.75;5034533;28;20317;-69
2022/07/17 00:11:01;;;;;;;3.10;2.80;;;;;;;17.85;53.98;98916.16;5034419;28;20214;-69
2022/07/17 00:13:27;;;;;;;5.37;3.00;;;;;;;17.61;54.56;98915.50;5034337;28;20225;-69
2022/07/17 00:15:54;;;;;;;3.73;2.43;;;;;;;17.63;54.58;98908.00;5034432;28;20254;-69
2022/07/17 00:18:20;;;;;;;2.90;2.60;;;;;;;17.49;55.59;98904.00;5034278;28;20316;-69
2022/07/17 00:20:47;;;;;;;4.50;2.57;;;;;;;17.61;54.49;98906.63;5034347;28;20292;-69
2022/07/17 00:23:13;;;;;;;2.97;2.50;;;;;;;17.59;55.79;98904.16;5034298;28;20293;-69
2022/07/17 00:25:40;;;;;;;3.17;2.50;;;;;;;17.57;55.78;98903.59;5034255;28;20210;-70
2022/07/17 00:28:06;;;;;;;4.27;2.73;;;;;;;17.66;55.17;98904.84;5034088;28;20304;-69
2022/07/17 00:30:33;;;;;;;3.77;2.80;;;;;;;17.63;55.45;98899.09;5034130;28;20206;-69
2022/07/17 00:32:59;;;;;;;3.97;3.23;;;;;;;17.59;56.22;98896.09;5034061;28;20318;-69
2022/07/17 00:35:26;;;;;;;5.03;3.00;;;;;;;17.58;55.54;98899.03;5033843;28;20220;-69
2022/07/17 00:37:52;;;;;;;3.77;2.77;;;;;;;17.57;55.42;98892.84;5034049;28;20316;-70
2022/07/17 00:40:22;;;;;;;5.43;3.00;;;;;;;17.49;56.01;98893.25;5033949;28;20237;-69
2022/07/17 00:42:49;;;;;;;5.43;3.17;;;;;;;17.48;55.63;98902.38;5033647;28;20661;-69
2022/07/17 00:45:16;;;;;;;3.50;3.10;;;;;;;17.63;55.01;98894.56;5034191;28;20212;-69
2022/07/17 00:47:53;;;;;;;4.03;3.07;;;;;;;17.65;54.72;98897.81;5033508;28;20213;-69
2022/07/17 00:50:21;;;;;;;3.77;2.87;;;;;;;17.48;56.10;98902.38;5033827;28;20324;-69
2022/07/17 00:52:48;;;;;;;4.03;2.90;;;;;;;17.40;56.27;98902.75;5033420;28;20677;-69
2022/07/17 00:55:15;;;;;;;4.47;2.97;;;;;;;17.50;55.54;98908.31;5033820;28;20293;-70
2022/07/17 00:57:43;;;;;;;6.03;3.40;;;;;;;17.20;56.97;98896.97;5033460;28;20206;-69
2022/07/17 01:00:10;;;;;;;4.20;3.10;;;;;;;17.24;56.08;98900.00;5033414;28;20666;-69
2022/07/17 01:02:38;;;;;;;5.57;3.10;;;;;;;17.24;56.44;98900.00;5033347;28;20206;-69
2022/07/17 01:05:05;;;;;;;4.53;3.00;;;;;;;17.26;56.97;98908.63;5033613;28;20573;-69
2022/07/17 01:07:34;;;;;;;4.97;3.00;;;;;;;17.27;56.52;98903.03;5033649;28;20205;-69
2022/07/17 01:10:00;;;;;;;6.87;3.17;;;;;;;17.18;55.92;98901.78;5033070;28;20739;-69
2022/07/17 01:12:27;;;;;;;3.87;3.20;;;;;;;17.22;55.72;98905.63;5033234;28;20691;-69
2022/07/17 01:14:54;;;;;;;4.07;2.90;;;;;;;17.16;55.95;98901.22;5032844;28;20716;-70
2022/07/17 01:17:21;;;;;;;4.10;2.93;;;;;;;17.09;56.22;98903.22;5033491;28;20208;-69
2022/07/17 01:19:47;;;;;;;4.13;3.03;;;;;;;17.07;56.41;98902.66;5031946;28;20236;-69
2022/07/17 01:22:13;;;;;;;3.97;2.57;;;;;;;17.12;56.45;98900.06;5033369;28;20303;-69
2022/07/17 01:24:41;;;;;;;3.93;3.20;;;;;;;17.04;56.61;98900.44;5033425;28;20209;-69
2022/07/17 01:27:07;;;;;;;3.20;2.80;;;;;;;17.03;57.04;98903.34;5033468;28;20252;-70
2022/07/17 01:29:37;;;;;;;4.17;2.87;;;;;;;16.94;57.27;98902.94;5033287;28;20640;-69
2022/07/17 01:32:04;;;;;;;4.53;2.90;;;;;;;16.92;57.16;98906.91;5033040;28;20711;-70
2022/07/17 01:34:30;;;;;;;3.37;2.80;;;;;;;16.83;57.78;98903.78;5033818;28;20237;-69
2022/07/17 01:36:57;;;;;;;5.17;3.40;;;;;;;16.78;57.80;98910.94;5033341;28;20213;-69
2022/07/17 01:39:52;;;;;;;4.43;3.10;;;;;;;16.81;57.88;98911.25;5033686;28;20313;-70
2022/07/17 01:42:10;;;;;;;3.60;3.17;;;;;;;16.97;56.11;98899.75;5033728;28;20291;-69
2022/07/17 01:44:37;;;;;;;3.90;2.80;;;;;;;16.98;57.03;98906.78;5032908;28;20651;-69
2022/07/17 01:47:04;;;;;;;6.97;3.03;;;;;;;16.74;57.61;98907.09;5032927;28;20679;-69
2022/07/17 01:49:31;;;;;;;6.33;3.17;;;;;;;16.84;57.52;98915.34;5033183;28;20226;-69
2022/07/17 01:51:59;;;;;;;4.20;3.20;;;;;;;16.96;56.18;98916.13;5032911;28;20300;-70
2022/07/17 01:54:30;;;;;;;4.87;3.50;;;;;;;16.92;57.09;98907.72;5033611;28;20222;-69
2022/07/17 01:56:56;;;;;;;3.80;3.50;;;;;;;16.98;57.23;98911.31;5033169;28;20213;-69
2022/07/17 01:59:23;;;;;;;4.13;3.07;;;;;;;16.93;56.82;98904.00;5032873;28;20237;-69
2022/07/17 02:01:50;;;;;;;3.97;3.20;;;;;;;16.92;57.11;98906.91;5032814;28;20756;-69
2022/07/17 02:04:16;;;;;;;5.17;3.67;;;;;;;16.85;57.43;98904.38;5032812;28;20202;-69
2022/07/17 02:06:43;;;;;;;3.97;3.00;;;;;;;16.78;57.51;98914.41;5032791;28;20210;-69
2022/07/17 02:09:09;;;;;;;4.53;3.23;;;;;;;16.77;58.04;98903.91;5032978;28;20317;-69
2022/07/17 02:11:35;;;;;;;4.27;3.43;;;;;;;16.71;57.79;98904.84;5032764;28;20299;-69
2022/07/17 02:14:02;;;;;;;5.60;3.43;;;;;;;16.64;57.75;98904.19;5032936;28;20330;-69
2022/07/17 02:16:28;;;;;;;3.87;3.30;;;;;;;16.55;58.68;98911.78;5032900;28;20202;-69
2022/07/17 02:18:55;;;;;;;3.27;2.93;;;;;;;16.43;59.27;98902.13;5032870;28;20229;-69
2022/07/17 02:21:21;;;;;;;5.20;3.00;;;;;;;16.47;59.21;98898.72;5032975;28;20209;-69
2022/07/17 02:23:47;;;;;;;4.33;3.10;;;;;;;16.42;59.22;98892.44;5032948;28;20203;-69
2022/07/17 02:26:14;;;;;;;4.17;3.00;;;;;;;16.38;59.60;98893.94;5033768;28;20237;-69
2022/07/17 02:28:40;;;;;;;8.43;3.43;;;;;;;16.33;59.72;98893.81;5036381;28;20255;-69
2022/07/17 02:31:07;;;;;;;4.40;3.20;;;;;;;16.26;59.84;98896.63;5036238;28;20216;-69
2022/07/17 02:33:33;;;;;;;5.03;3.70;;;;;;;16.16;60.11;98896.41;5035997;28;20222;-69
2022/07/17 02:36:01;;;;;;;4.60;3.30;;;;;;;16.18;60.31;98891.59;5036072;28;20710;-69
2022/07/17 02:38:28;;;;;;;3.47;3.17;;;;;;;16.15;59.96;98896.63;5036795;28;20221;-69
2022/07/17 02:40:54;;;;;;;4.67;3.17;;;;;;;16.20;59.84;98894.06;5036328;28;20384;-69
2022/07/17 02:43:20;;;;;;;4.37;3.23;;;;;;;16.21;59.82;98899.19;5035930;28;20214;-69
2022/07/17 02:45:47;;;;;;;3.73;3.20;;;;;;;15.97;61.37;98897.53;5036185;28;20202;-69
2022/07/17 02:48:13;;;;;;;3.80;3.40;;;;;;;16.02;61.16;98894.19;5035627;28;20652;-69
2022/07/17 02:50:40;;;;;;;5.13;3.17;;;;;;;16.04;60.54;98894.75;5036081;28;20216;-69
2022/07/17 02:53:06;;;;;;;5.33;3.10;;;;;;;15.97;60.52;98883.34;5035883;28;20213;-69
2022/07/17 02:55:32;;;;;;;5.33;3.00;;;;;;;15.95;60.74;98888.94;5036018;28;20202;-69
2022/07/17 02:57:59;;;;;;;3.63;2.90;;;;;;;15.85;61.41;98894.06;5035839;28;20202;-70
2022/07/17 03:00:26;;;;;;;5.47;3.47;;;;;;;15.74;62.20;98886.81;5035537;28;20305;-69
2022/07/17 03:02:54;;;;;;;3.63;3.00;;;;;;;15.73;62.17;98893.22;5035683;28;20229;-69
2022/07/17 03:05:21;;;;;;;3.30;3.00;;;;;;;15.67;62.22;98880.75;5035434;28;20203;-69
2022/07/17 03:07:48;;;;;;;3.83;3.10;;;;;;;15.74;62.08;98886.81;5036089;28;20216;-69
2022/07/17 03:10:15;;;;;;;3.03;2.80;;;;;;;15.57;63.15;98880.50;5035409;28;20339;-69
2022/07/17 03:12:42;;;;;;;5.83;3.13;;;;;;;15.70;62.36;98880.28;5035197;28;20296;-70
2022/07/17 03:15:09;;;;;;;4.27;3.30;;;;;;;15.77;61.98;98880.16;5035315;28;20328;-69
2022/07/17 03:17:36;;;;;;;4.10;3.20;;;;;;;15.70;62.45;98880.28;5035352;28;20206;-69
2022/07/17 03:20:04;;;;;;;3.33;3.03;;;;;;;15.73;62.30;98882.50;5035298;28;20321;-69
2022/07/17 03:22:30;;;;;;;4.63;3.07;;;;;;;15.73;62.17;98874.44;5035198;28;20209;-69
2022/07/17 03:24:57;;;;;;;3.77;3.00;;;;;;;15.80;61.87;98871.66;5035322;28;20285;-69
2022/07/17 03:27:23;;;;;;;4.40;3.30;;;;;;;15.60;63.14;98874.66;5035337;28;20292;-69
2022/07/17 03:29:49;;;;;;;5.33;3.20;;;;;;;15.52;64.16;98866.97;5034834;28;20586;-69
2022/07/17 03:32:16;;;;;;;3.70;3.20;;;;;;;15.42;64.34;98872.06;5035252;28;20202;-69
2022/07/17 03:34:42;;;;;;;5.67;3.37;;;;;;;15.43;64.13;98876.38;5035151;28;20324;-69
2022/07/17 03:37:09;;;;;;;3.60;3.30;;;;;;;15.42;64.13;98876.63;5034678;28;20205;-69
2022/07/17 03:39:35;;;;;;;3.77;3.13;;;;;;;15.44;64.33;98875.34;5034819;28;20233;-69
2022/07/17 03:42:02;;;;;;;4.27;3.13;;;;;;;15.45;63.74;98878.81;5034713;28;20664;-69
2022/07/17 03:44:29;;;;;;;4.80;2.83;;;;;;;15.46;63.55;98875.09;5034829;28;20629;-69
2022/07/17 03:46:56;;;;;;;4.10;2.80;;;;;;;15.35;63.94;98879.41;5034539;28;20300;-69
2022/07/17 03:49:23;;;;;;;5.33;3.03;;;;;;;15.33;63.70;98884.13;5034757;28;20222;-69
2022/07/17 03:51:49;;;;;;;3.07;2.77;;;;;;;15.36;63.60;98882.88;5034524;28;20296;-69
2022/07/17 03:54:16;;;;;;;4.27;2.90;;;;;;;15.44;64.12;98883.38;5034780;28;20337;-69
2022/07/17 03:56:42;;;;;;;3.57;3.27;;;;;;;15.53;63.32;98878.50;5034554;28;20206;-69
2022/07/17 03:59:09;;;;;;;3.40;3.10;;;;;;;15.60;63.27;98889.94;5034266;28;20240;-69
2022/07/17 04:01:35;;;;;;;3.20;2.90;;;;;;;15.79;62.40;98888.81;5034588;28;20389;-69
2022/07/17 04:04:01;;;;;;;3.83;2.77;;;;;;;15.57;62.65;98891.22;5034015;28;20294;-69
2022/07/17 04:06:28;;;;;;;4.00;2.70;;;;;;;15.40;63.49;98895.63;5034315;28;20209;-69
2022/07/17 04:08:54;;;;;;;3.10;2.80;;;;;;;15.36;63.96;98890.91;5034220;28;20230;-69
2022/07/17 04:11:21;;;;;;;3.33;2.63;;;;;;;15.34;63.90;98901.06;5034126;28;20296;-69
2022/07/17 04:13:48;;;;;;;3.23;2.73;;;;;;;15.24;64.42;98900.78;5033778;28;20317;-69
2022/07/17 04:16:15;;;;;;;3.10;2.80;;;;;;;15.24;64.94;98906.94;5033625;28;20751;-69
2022/07/17 04:18:41;;;;;;;3.00;2.70;;;;;;;15.34;64.58;98909.09;5034226;28;20237;-69
2022/07/17 04:21:10;;;;;;;3.83;2.77;;;;;;;15.37;64.36;98904.09;5033982;28;20660;-69
2022/07/17 04:23:37;;;;;;;5.70;3.00;;;;;;;15.38;64.19;98904.94;5033963;28;20776;-69
2022/07/17 04:26:06;;;;;;;4.03;2.67;;;;;;;15.40;65.10;98910.84;5034014;28;20660;-69
2022/07/17 04:28:32;;;;;;;4.03;2.80;;;;;;;15.46;65.47;98907.25;5034145;28;20233;-69
2022/07/17 04:30:59;;;;;;;3.37;3.03;;;;;;;15.50;65.25;98911.13;5034759;28;20210;-69
2022/07/17 04:33:25;;;;;;;3.30;2.83;;;;;;;15.46;65.36;98901.91;5034170;28;20244;-70
2022/07/17 04:35:52;;;;;;;4.17;2.90;;;;;;;15.47;65.19;98906.22;5033938;28;20313;-69
2022/07/17 04:38:18;;;;;;;3.67;3.00;;;;;;;15.52;65.30;98904.47;5034362;28;20234;-69
2022/07/17 04:40:46;;;;;;;4.07;3.10;;;;;;;15.57;65.42;98901.94;5033916;28;20624;-69
2022/07/17 04:43:12;;;;;;;3.20;2.90;;;;;;;15.49;65.46;98906.81;5033865;28;20217;-69
2022/07/17 04:45:39;;;;;;;3.73;3.10;;;;;;;15.68;64.97;98911.03;5033592;28;20293;-69
2022/07/17 04:48:05;;;;;;;3.83;3.30;;;;;;;15.71;64.49;98911.41;5033759;28;20305;-69
2022/07/17 04:50:32;;;;;;;5.20;3.13;;;;;;;15.84;64.31;98916.53;5033253;28;20202;-69
2022/07/17 04:53:00;;;;;;;4.37;3.63;;;;;;;15.90;63.84;98914.81;5033705;28;20206;-69
2022/07/17 04:55:27;;;;;;;4.73;3.23;;;;;;;15.90;63.35;98914.81;5033617;28;20276;-69
2022/07/17 04:57:53;;;;;;;5.00;3.10;;;;;;;15.91;63.19;98909.22;5033437;28;20639;-69
2022/07/17 05:00:21;;;;;;;3.53;3.23;;;;;;;15.89;62.66;98910.50;5033344;28;20242;-69
2022/07/17 05:02:47;;;;;;;4.43;3.47;;;;;;;16.02;62.25;98916.44;5033417;28;20300;-69
2022/07/17 05:05:15;;;;;;;4.40;3.20;;;;;;;16.11;62.74;98909.69;5033586;28;20202;-69
2022/07/17 05:07:41;;;;;;;6.73;3.30;;;;;;;16.36;60.95;98914.78;5033314;28;20297;-69
2022/07/17 05:10:09;;;;;;;3.60;3.30;;;;;;;16.76;59.61;98910.34;5033422;28;20229;-69
2022/07/17 05:12:36;;;;;;;5.03;3.53;;;;;;;17.42;57.44;98921.34;5033421;28;20214;-69
2022/07/17 05:15:04;;;;;;;5.87;3.37;;;;;;;17.87;55.75;98909.47;5033452;28;20224;-69
2022/07/17 05:17:30;;;;;;;6.03;3.50;;;;;;;17.64;55.47;98916.91;5033549;28;20292;-70
2022/07/17 05:19:57;;;;;;;6.13;3.43;;;;;;;17.68;56.07;98916.16;5033898;28;20578;-69
2022/07/17 05:22:23;;;;;;;5.10;3.40;;;;;;;17.89;55.30;98911.91;5033380;28;20249;-69
2022/07/17 05:24:49;;;;;;;5.07;3.30;;;;;;;17.88;55.68;98918.38;5033112;28;20687;-69
2022/07/17 05:27:16;;;;;;;4.33;2.87;;;;;;;18.01;55.36;98923.44;5033445;28;20297;-69
2022/07/17 05:29:42;;;;;;;4.33;3.30;;;;;;;18.71;53.21;98916.38;5033370;28;20321;-69
2022/07/17 05:32:09;;;;;;;3.70;2.90;;;;;;;18.36;53.27;98915.88;5034144;28;20202;-69
2022/07/17 05:34:35;;;;;;;3.37;3.03;;;;;;;18.13;54.06;98924.13;5032152;28;20308;-69
2022/07/17 05:37:01;;;;;;;5.03;3.40;;;;;;;18.26;54.27;98919.25;5032869;28;20308;-69
2022/07/17 05:39:28;;;;;;;7.10;3.13;;;;;;;18.25;54.35;98924.88;5032752;28;20229;-69
2022/07/17 05:41:54;;;;;;;4.00;3.20;;;;;;;18.11;54.43;98924.41;5032878;28;20240;-69
2022/07/17 05:44:21;;;;;;;5.00;3.63;;;;;;;18.07;54.99;98917.88;5032985;28;20291;-69
2022/07/17 05:46:47;;;;;;;4.37;3.40;;;;;;;18.06;54.80;98921.59;5032992;28;20206;-70
2022/07/17 05:49:13;;;;;;;4.03;3.43;;;;;;;17.91;55.17;98916.00;5033097;28;20325;-69
2022/07/17 05:51:40;;;;;;;4.27;3.70;;;;;;;17.92;55.01;98911.44;5033205;28;20210;-69
2022/07/17 05:54:06;;;;;;;5.37;3.57;;;;;;;17.98;54.96;98924.72;5032764;28;20725;-69
2022/07/17 05:56:33;;;;;;;4.93;3.50;;;;;;;18.07;55.22;98922.44;5033113;28;20573;-69
2022/07/17 05:58:59;;;;;;;4.53;3.73;;;;;;;18.12;54.80;98920.66;5032618;28;20320;-69
2022/07/17 06:01:25;;;;;;;3.50;3.23;;;;;;;18.33;54.42;98927.19;5034434;28;20212;-70
2022/07/17 06:03:52;;;;;;;5.27;3.90;;;;;;;18.29;54.02;98926.00;5036658;28;20686;-69
2022/07/17 06:06:18;;;;;;;4.67;3.67;;;;;;;18.28;54.45;98924.38;5036857;28;20208;-70
2022/07/17 06:08:44;;;;;;;5.20;3.60;;;;;;;17.83;54.60;98929.06;5036667;28;20316;-70
2022/07/17 06:11:11;;;;;;;4.23;3.13;;;;;;;18.08;54.54;98932.97;5036417;28;20206;-69
2022/07/17 06:13:37;;;;;;;4.03;3.63;;;;;;;18.05;55.07;98929.94;5036352;28;20300;-69
2022/07/17 06:16:04;;;;;;;5.77;3.63;;;;;;;18.63;54.10;98928.41;5036326;28;20696;-69
2022/07/17 06:18:30;;;;;;;5.87;3.57;;;;;;;18.72;53.53;98921.53;5036462;28;20320;-69
2022/07/17 06:20:57;;;;;;;5.10;3.50;;;;;;;18.78;54.33;98925.91;5036438;28;20201;-69
2022/07/17 06:23:23;;;;;;;5.47;3.70;;;;;;;18.85;53.25;98931.09;5036427;28;20293;-69
2022/07/17 06:25:49;;;;;;;3.60;3.30;;;;;;;18.79;53.56;98935.63;5036519;28;20198;-69
2022/07/17 06:28:16;;;;;;;4.93;3.67;;;;;;;18.81;53.67;98938.06;5036337;28;20297;-69
2022/07/17 06:30:47;;;;;;;8.70;3.23;;;;;;;18.83;53.71;98934.03;5036408;28;20210;-69
2022/07/17 06:33:15;;;;;;;8.00;3.57;;;;;;;18.99;53.65;98938.56;5035936;28;20194;-69
2022/07/17 06:35:41;;;;;;;6.33;3.47;;;;;;;18.97;53.50;98935.34;5035890;28;20233;-69
2022/07/17 06:38:08;;;;;;;3.93;3.33;;;;;;;19.23;53.73;98939.94;5035900;28;20210;-69
2022/07/17 06:40:34;;;;;;;6.70;3.60;;;;;;;19.31;53.25;98938.69;5036054;28;20205;-69
2022/07/17 06:43:01;;;;;;;3.73;3.40;;;;;;;19.35;52.89;98943.34;5035989;28;20296;-70
2022/07/17 06:45:27;;;;;;;4.77;3.23;;;;;;;18.94;52.94;98935.81;5035974;28;20210;-69
2022/07/17 06:47:54;;;;;;;4.03;3.63;;;;;;;19.50;52.90;98940.00;5035957;28;20301;-69
2022/07/17 06:50:20;;;;;;;3.53;3.00;;;;;;;19.73;51.55;98941.53;5035714;28;20237;-69
2022/07/17 06:52:47;;;;;;;3.30;2.97;;;;;;;19.72;51.66;98940.75;5035705;28;20289;-70
2022/07/17 06:55:14;;;;;;;4.73;3.60;;;;;;;19.29;51.78;98949.75;5035504;28;20221;-69
2022/07/17 06:57:40;;;;;;;3.10;2.80;;;;;;;19.57;51.47;98947.88;5036422;28;20293;-69
2022/07/17 07:00:08;;;;;;;4.00;3.03;;;;;;;19.57;52.01;98951.38;5035531;28;20238;-69
2022/07/17 07:02:35;;;;;;;3.40;3.10;;;;;;;19.64;51.36;98950.09;5035736;28;20288;-69
2022/07/17 07:05:01;;;;;;;4.97;2.87;;;;;;;19.68;50.43;98945.03;5035453;28;20293;-70
2022/07/17 07:07:28;;;;;;;7.37;2.90;;;;;;;19.58;50.59;98953.00;5035648;28;20237;-70
2022/07/17 07:09:54;;;;;;;3.87;2.70;;;;;;;19.17;51.36;98950.91;5035054;28;20258;-69
2022/07/17 07:12:21;;;;;;;3.23;2.70;;;;;;;19.63;50.12;98949.56;5034696;28;20669;-69
2022/07/17 07:14:47;;;;;;;3.83;2.47;;;;;;;19.80;49.28;98953.75;5035385;28;20412;-70
2022/07/17 07:17:14;;;;;;;3.47;2.10;;;;;;;20.16;48.60;98954.91;5035502;28;20206;-67
2022/07/17 07:19:40;;;;;;;3.50;2.50;;;;;;;20.49;47.45;98960.00;5035291;28;20232;-67
2022/07/17 07:22:06;;;;;;;5.43;2.63;;;;;;;20.64;47.85;98957.38;5035108;28;20288;-67
2022/07/17 07:24:33;;;;;;;4.27;2.40;;;;;;;20.68;47.66;98953.09;5034940;28;20205;-67
2022/07/17 07:26:59;;;;;;;4.10;2.63;;;;;;;20.34;48.57;98951.81;5035210;28;20569;-67
2022/07/17 07:29:25;;;;;;;5.33;2.20;;;;;;;20.81;47.25;98956.16;5035514;28;20228;-67
2022/07/17 07:31:52;;;;;;;2.30;2.03;;;;;;;20.80;47.63;98956.41;5035245;28;20212;-67
2022/07/17 07:34:18;;;;;;;4.60;2.20;;;;;;;20.79;46.97;98952.09;5035841;28;20228;-67
2022/07/17 07:36:45;;;;;;;4.03;2.10;;;;;;;20.78;47.34;98955.84;5035116;28;20209;-67
2022/07/17 07:39:11;;;;;;;6.83;2.20;;;;;;;21.14;45.95;98952.25;5034530;28;20731;-67
2022/07/17 07:41:37;;;;;;;2.87;2.00;;;;;;;20.98;45.90;98948.69;5034793;28;20206;-68
2022/07/17 07:44:04;;;;;;;2.53;2.17;;;;;;;21.12;45.99;98944.41;5034767;28;20296;-68
2022/07/17 07:46:31;;;;;;;2.37;1.87;;;;;;;21.40;45.34;98949.38;5034886;28;20293;-68
2022/07/17 07:48:57;;;;;;;2.70;2.17;;;;;;;21.38;44.27;98954.22;5034564;28;20316;-68
2022/07/17 07:51:24;;;;;;;4.53;2.17;;;;;;;21.39;45.08;98949.66;5034495;28;20688;-68
2022/07/17 07:53:50;;;;;;;2.90;2.03;;;;;;;21.35;44.72;98956.66;5034407;28;20293;-68
2022/07/17 07:56:16;;;;;;;3.43;2.17;;;;;;;21.58;44.45;98953.47;5034495;28;20230;-68
2022/07/17 07:58:43;;;;;;;3.33;1.90;;;;;;;21.55;44.14;98964.81;5034428;28;20317;-68
2022/07/17 08:01:09;;;;;;;1.90;1.80;;;;;;;21.74;43.15;98963.25;5034168;28;20724;-68
2022/07/17 08:03:36;;;;;;;1.87;1.73;;;;;;;21.84;41.90;98968.72;5034296;28;20205;-68
2022/07/17 08:06:02;;;;;;;2.67;1.83;;;;;;;21.84;41.97;98955.19;5034320;28;20202;-68
2022/07/17 08:08:29;;;;;;;2.77;1.73;;;;;;;22.01;41.55;98967.38;5034109;28;20316;-68
2022/07/17 08:10:55;;;;;;;3.77;1.97;;;;;;;22.14;41.61;98969.53;5033937;28;20605;-68
2022/07/17 08:13:21;;;;;;;1.93;1.73;;;;;;;22.26;42.52;98966.56;5034204;28;20293;-69
2022/07/17 08:15:48;;;;;;;2.13;1.83;;;;;;;22.11;41.92;98967.34;5034453;28;20701;-67
2022/07/17 08:18:14;;;;;;;2.80;2.00;;;;;;;22.17;42.35;98970.88;5033726;28;20301;-68
2022/07/17 08:20:43;;;;;;;2.37;2.17;;;;;;;22.19;42.25;98968.72;5034003;28;20201;-68
2022/07/17 08:23:09;;;;;;;2.47;2.27;;;;;;;22.25;42.18;98964.94;5033313;28;20210;-68
2022/07/17 08:25:36;;;;;;;2.67;1.97;;;;;;;22.36;41.95;98969.25;5032951;28;20680;-70
2022/07/17 08:28:02;;;;;;;2.60;1.90;;;;;;;22.39;41.21;98964.09;5033874;28;20205;-68
2022/07/17 08:30:31;;;;;;;2.20;1.90;;;;;;;22.74;41.34;98965.97;5033851;28;20214;-69
2022/07/17 08:32:57;;;;;;;3.13;1.80;;;;;;;22.80;40.38;98962.16;5033743;28;20620;-68
2022/07/17 08:35:24;;;;;;;3.27;2.20;;;;;;;22.93;40.93;98970.50;5034664;28;20583;-69
2022/07/17 08:37:52;;;;;;;2.20;2.00;;;;;;;22.92;40.64;98962.69;5033163;28;20205;-69
2022/07/17 08:40:25;;;;;;;3.10;2.00;;;;;;;22.89;39.99;98955.88;5033497;28;20317;-69
2022/07/17 08:42:53;;;;;;;3.33;1.80;;;;;;;22.91;39.81;98958.31;5033093;28;20674;-68
2022/07/17 08:45:20;;;;;;;1.95;1.70;;;;;;;23.18;39.30;98956.88;5033495;28;20198;-69
2022/07/17 08:47:47;;;;;;;2.53;2.10;;;;;;;23.07;38.97;98959.91;5033293;28;20210;-69
2022/07/17 08:50:14;;;;;;;3.08;1.85;;;;;;;23.20;38.56;98967.47;5033464;28;20233;-68
2022/07/17 08:52:43;;;;;;;2.55;1.90;;;;;;;22.61;40.03;98972.75;5033743;28;20296;-68
2022/07/17 08:55:14;;;;;;;2.38;1.85;;;;;;;22.92;39.49;98966.19;5033285;28;20783;-68
2022/07/17 08:57:43;;;;;;;2.05;1.95;;;;;;;23.27;39.39;98967.97;5033660;28;20206;-68
2022/07/17 09:00:12;;;;;;;2.97;2.67;;;;;;;23.45;38.62;98962.72;5032904;28;20272;-68
2022/07/17 09:02:40;;;;;;;2.75;2.35;;;;;;;23.32;38.81;98957.09;5033162;28;20206;-68
2022/07/17 09:05:08;;;;;;;4.10;1.80;;;;;;;23.48;38.39;98959.44;5033002;28;20617;-68
2022/07/17 09:07:34;;;;;;;1.80;1.70;;;;;;;23.63;38.67;98972.13;5033343;28;20214;-69
2022/07/17 09:10:01;;;;;;;3.28;2.70;;;;;;;23.64;38.17;98968.31;5033067;28;20226;-69
2022/07/17 09:12:29;;;;;;;2.45;2.20;;;;;;;23.63;37.37;98961.25;5033313;28;20637;-69
2022/07/17 09:14:57;;;;;;;2.92;1.80;;;;;;;23.63;39.03;98958.53;5033288;28;20297;-68
2022/07/17 09:17:26;;;;;;;2.08;1.98;;;;;;;23.85;37.55;98958.94;5032700;28;20301;-69
2022/07/17 09:19:53;;;;;;;1.70;1.60;;;;;;;23.96;37.24;98955.09;5032991;28;20321;-68
2022/07/17 09:22:24;;;;;;;3.28;2.15;;;;;;;24.27;36.76;98964.59;5032742;28;20677;-69
2022/07/17 09:24:55;;;;;;;1.70;1.60;;;;;;;24.20;37.02;98958.72;5032640;28;20741;-68
2022/07/17 09:27:25;;;;;;;4.28;3.17;;;;;;;24.19;36.13;98965.25;5032592;28;20217;-69
2022/07/17 09:30:12;;;;;;;3.83;3.45;;;;;;;24.54;35.63;98963.00;5033016;28;20226;-69
2022/07/17 09:32:40;;;;;;;2.08;1.90;;;;;;;24.56;34.56;98962.72;5033066;28;20276;-69
2022/07/17 09:35:09;;;;;;;4.68;1.70;;;;;;;24.50;33.70;98967.41;5033862;28;20209;-69
2022/07/17 09:37:37;;;;;;;2.13;1.92;;;;;;;24.84;34.55;98965.44;5037108;28;20240;-69
2022/07/17 09:41:09;;;;;;;3.30;1.70;;;;;;;24.25;35.13;98961.38;5036539;28;20616;-69
2022/07/17 09:43:01;;;;;;;1.80;1.70;;;;;;;24.00;34.02;98954.25;5036336;28;20669;-69
2022/07/17 09:45:27;;;;;;;3.33;1.58;;;;;;;24.20;35.68;98950.56;5036969;28;20236;-69
2022/07/17 09:47:54;;;;;;;1.88;1.70;;;;;;;24.68;34.26;98953.09;5036982;28;20220;-68
2022/07/17 09:50:22;;;;;;;2.83;1.80;;;;;;;24.44;33.25;98946.81;5035403;28;20225;-68
2022/07/17 09:52:49;;;;;;;1.40;1.30;;;;;;;24.77;33.95;98956.00;5036475;28;20271;-69
2022/07/17 09:55:17;;;;;;;1.90;1.70;;;;;;;24.64;33.05;98948.50;5036551;28;20202;-69
2022/07/17 09:57:48;;;;;;;3.92;1.73;;;;;;;25.04;32.63;98953.50;5036927;28;20292;-68
2022/07/17 10:00:15;;;;;;;4.78;1.55;;;;;;;25.18;31.65;98957.13;5036352;28;20324;-69
2022/07/17 10:02:44;;;;;;;3.45;1.60;;;;;;;25.08;32.36;98951.81;5036177;28;20212;-68
2022/07/17 10:05:12;;;;;;;2.47;1.60;;;;;;;25.31;31.71;98956.47;5036485;28;20268;-69
2022/07/17 10:07:41;;;;;;;2.42;1.80;;;;;;;25.40;31.51;98958.25;5035955;28;20566;-69
2022/07/17 10:10:11;;;;;;;1.60;1.50;;;;;;;25.49;31.08;98958.38;5036249;28;20283;-69
2022/07/17 10:12:39;;;;;;;1.52;1.42;;;;;;;25.28;31.45;98946.97;5036553;28;20233;-69
2022/07/17 10:15:06;;;;;;;1.67;1.48;;;;;;;25.48;31.73;98943.97;5036279;28;20213;-69
2022/07/17 10:17:33;;;;;;;1.65;1.55;;;;;;;25.73;30.54;98938.16;5036598;28;20201;-68
2022/07/17 10:20:00;;;;;;;2.05;1.92;;;;;;;25.83;29.78;98931.75;5035937;28;20713;-69
2022/07/17 10:22:27;;;;;;;2.72;1.80;;;;;;;25.86;29.82;98928.41;5036168;28;20292;-69
2022/07/17 10:24:55;;;;;;;1.90;1.80;;;;;;;26.18;30.04;98932.00;5036142;28;20216;-69
2022/07/17 10:27:30;;;;;;;1.50;1.40;;;;;;;26.09;29.04;98946.59;5036303;28;20298;-69
2022/07/17 10:30:08;;;;;;;2.47;1.48;;;;;;;25.92;28.38;98940.88;5036067;28;20229;-69
2022/07/17 10:32:35;;;;;;;1.85;1.25;;;;;;;25.76;28.92;98937.56;5036008;28;20309;-69
2022/07/17 10:35:07;;;;;;;2.00;1.58;;;;;;;25.85;28.88;98933.06;5036175;28;20297;-69
2022/07/17 10:37:40;;;;;;;1.45;1.35;;;;;;;25.77;28.79;98931.00;5035797;28;20634;-69
2022/07/17 10:40:15;;;;;;;2.55;1.58;;;;;;;25.12;29.54;98933.81;5036053;28;20249;-69
2022/07/17 10:42:51;;;;;;;2.05;1.63;;;;;;;24.97;29.61;98923.13;5037165;28;20300;-69
2022/07/17 10:45:19;;;;;;;2.40;1.50;;;;;;;25.48;29.78;98919.47;5037486;28;20736;-68
2022/07/17 10:48:02;;;;;;;1.58;1.48;;;;;;;25.65;29.14;98919.75;5034763;28;20285;-69
2022/07/17 10:50:36;;;;;;;3.22;1.48;;;;;;;25.19;29.47;98913.28;5035423;28;20198;-69
2022/07/17 10:53:16;;;;;;;1.58;1.33;;;;;;;25.69;30.28;98909.09;5035664;28;20190;-69
2022/07/17 10:55:45;;;;;;;2.03;1.30;;;;;;;26.04;29.25;98914.81;5035815;28;20213;-69
2022/07/17 10:58:34;;;;;;;2.17;1.48;;;;;;;25.42;28.79;98909.75;5035754;28;20300;-70
2022/07/17 11:01:15;;;;;;;2.65;1.60;;;;;;;26.25;29.20;98909.81;5034455;28;20196;-69
2022/07/17 11:03:49;;;;;;;1.60;1.27;;;;;;;26.66;27.80;98907.97;5034911;28;20699;-68
2022/07/17 11:06:29;;;;;;;2.10;1.63;;;;;;;26.96;26.86;98912.84;5035004;28;20701;-68
2022/07/17 11:09:13;;;;;;;1.58;1.20;;;;;;;26.58;24.78;98911.41;5035645;28;20225;-69
2022/07/17 11:11:49;;;;;;;1.35;1.25;;;;;;;26.62;27.04;98913.25;5035040;28;20502;-69
2022/07/17 11:14:21;;;;;;;1.70;1.60;;;;;;;26.83;27.31;98916.38;5035375;28;20296;-69
2022/07/17 11:16:48;;;;;;;2.83;2.42;;;;;;;26.39;28.07;98913.38;5035302;28;20328;-69
2022/07/17 11:19:39;;;;;;;1.70;1.60;;;;;;;26.48;28.15;98915.13;5035068;28;20225;-69
2022/07/17 11:22:11;;;;;;;1.50;1.40;;;;;;;26.54;27.02;98908.44;5035314;28;20198;-69
2022/07/17 11:24:42;;;;;;;1.35;1.33;;;;;;;25.99;27.28;98904.00;5034692;28;20296;-69
2022/07/17 11:27:19;;;;;;;2.67;1.42;;;;;;;26.16;27.47;98898.81;5035069;28;20209;-69
2022/07/17 11:29:46;;;;;;;4.57;1.80;;;;;;;26.19;28.14;98902.84;5034856;28;20237;-69
2022/07/17 11:32:12;;;;;;;2.97;1.60;;;;;;;26.82;28.20;98896.47;5034734;28;20297;-69
2022/07/17 11:34:39;;;;;;;1.50;1.40;;;;;;;26.64;27.33;98900.09;5034380;28;20202;-69
2022/07/17 11:37:07;;;;;;;1.60;1.50;;;;;;;26.75;28.40;98898.81;5034411;28;20312;-69